Impacts METAR Board INFO
IDs:

KMSP - Minneapolis-St Paul, MN, US

Updated at: 0650 UTC 19 Nov 2017
Potential Impact None Slight Moderate High
Time18/18Z 18/19Z 18/20Z 18/21Z 18/22Z 18/23Z 19/00Z 19/01Z 19/02Z 19/03Z 19/04Z 19/05Z 19/06Z
VIS10 10 10 10 10 10 10 10 10 10 10 10 10
CIG-- -- -- -- -- -- -- -- -- -- -- -- 210
CoverCLRCLRCLRSCTFEWFEWFEWFEWFEWCLRCLRCLRBKN
FltCatVFRVFRVFRVFRVFRVFRVFRVFRVFRVFRVFRVFRVFR
WX--------------------------
WDir330320320330310320320320330330320320320
WSpd16 18 19 21 15 13 14 18 17 17 16 10 10
WGst22 23 24 26 25 24 -- 22 25 22 -- 19 --
Raw hourly METARs
KMSP 181753Z 33016G22KT 10SM CLR 02/M05 A2982 RMK AO2 SLP107 T00221050 10022 21006 51007
KMSP 181853Z 32018G23KT 10SM CLR 03/M05 A2984 RMK AO2 PK WND 33026/1837 SLP111 T00281050
KMSP 181953Z 32019G24KT 10SM CLR 02/M06 A2985 RMK AO2 PK WND 31034/1909 SLP116 T00171061
KMSP 182053Z 33021G26KT 10SM SCT034 01/M07 A2987 RMK AO2 PK WND 31029/2004 SLP123 T00061067 53015
KMSP 182153Z 31015G25KT 10SM FEW034 00/M07 A2989 RMK AO2 SLP132 T00001072
KMSP 182253Z 32013G24KT 10SM FEW040 M02/M08 A2993 RMK AO2 SLP144 T10171078
KMSP 182353Z 32014KT 10SM FEW040 M02/M08 A2996 RMK AO2 SLP156 T10221083 10028 21022 53031
KMSP 190053Z 32018G22KT 10SM FEW035 M03/M09 A2998 RMK AO2 PK WND 32027/0007 SLP164 T10331089
KMSP 190153Z 33017G25KT 10SM FEW035 M05/M11 A3001 RMK AO2 PK WND 32030/0120 SLP172 T10501111
KMSP 190253Z 33017G22KT 10SM CLR M06/M11 A3002 RMK AO2 SLP177 T10561111 51018
KMSP 190353Z 32016KT 10SM CLR M06/M11 A3003 RMK AO2 PK WND 33026/0313 SLP180 T10561106
KMSP 190453Z 32010G19KT 10SM CLR M06/M11 A3005 RMK AO2 SLP186 T10611106
KMSP 190553Z 32010KT 10SM BKN210 M06/M12 A3004 RMK AO2 SLP184 T10611117 11022 21061 400281061 50008